createdAt,value
2023-04-03T00:01:46.289Z,1.93
2023-04-03T00:04:25.134Z,2.23
2023-04-03T00:06:58.053Z,2.00
2023-04-03T00:09:28.218Z,2.07
2023-04-03T00:11:57.862Z,1.80
2023-04-03T00:14:28.708Z,2.10
2023-04-03T00:16:59.079Z,2.00
2023-04-03T00:19:28.044Z,2.00
2023-04-03T00:21:58.472Z,2.20
2023-04-03T00:24:29.397Z,2.07
2023-04-03T00:27:02.660Z,2.20
2023-04-03T00:29:35.213Z,1.90
2023-04-03T00:32:07.163Z,1.90
2023-04-03T00:34:36.513Z,2.03
2023-04-03T00:37:07.481Z,1.90
2023-04-03T00:39:37.153Z,1.83
2023-04-03T00:42:05.988Z,2.07
2023-04-03T00:45:12.532Z,2.10
2023-04-03T00:47:44.743Z,1.80
2023-04-03T00:50:15.063Z,1.77
2023-04-03T00:52:47.677Z,1.83
2023-04-03T00:55:17.887Z,2.27
2023-04-03T00:57:48.437Z,1.90
2023-04-03T01:00:36.034Z,2.03
2023-04-03T01:03:08.510Z,2.07
2023-04-03T01:05:47.708Z,1.63
2023-04-03T01:08:17.549Z,2.10
2023-04-03T01:10:46.148Z,1.73
2023-04-03T01:13:24.337Z,1.80
2023-04-03T01:15:55.599Z,1.97
2023-04-03T01:18:29.314Z,1.80
2023-04-03T01:21:36.909Z,1.90
2023-04-03T01:24:19.606Z,1.70
2023-04-03T01:26:49.317Z,1.70
2023-04-03T01:29:20.626Z,2.13
2023-04-03T01:31:54.699Z,2.20
2023-04-03T01:34:32.213Z,2.00
2023-04-03T01:37:02.488Z,2.23
2023-04-03T01:39:33.414Z,1.90
2023-04-03T01:42:04.757Z,1.80
2023-04-03T01:44:33.946Z,1.93
2023-04-03T01:47:04.745Z,2.00
2023-04-03T01:49:38.253Z,1.97
2023-04-03T01:52:06.441Z,1.93
2023-04-03T01:54:34.761Z,2.77
2023-04-03T01:57:06.041Z,2.57
2023-04-03T01:59:40.588Z,3.13
2023-04-03T02:02:15.852Z,1.93
2023-04-03T02:04:44.759Z,2.10
2023-04-03T02:07:14.498Z,2.20
2023-04-03T02:09:44.625Z,2.40
2023-04-03T02:12:15.214Z,2.37
2023-04-03T02:14:43.364Z,2.13
2023-04-03T02:17:12.884Z,2.40
2023-04-03T02:19:41.204Z,2.70
2023-04-03T02:22:09.322Z,2.30
2023-04-03T02:24:40.083Z,2.07
2023-04-03T02:27:08.850Z,2.27
2023-04-03T02:29:41.723Z,2.40
2023-04-03T02:32:14.542Z,2.50
2023-04-03T02:34:44.488Z,2.37
2023-04-03T02:37:12.564Z,1.93
2023-04-03T02:39:40.974Z,2.00
2023-04-03T02:42:09.643Z,1.83
2023-04-03T02:44:38.119Z,1.97
2023-04-03T02:47:06.788Z,1.77
2023-04-03T02:49:39.855Z,1.87
2023-04-03T02:52:09.281Z,2.20
2023-04-03T02:54:37.705Z,1.60
2023-04-03T02:57:05.917Z,1.50
2023-04-03T02:59:37.081Z,1.60
2023-04-03T03:02:08.864Z,1.80
2023-04-03T03:04:38.875Z,1.90
2023-04-03T03:07:07.149Z,2.00
2023-04-03T03:09:36.722Z,1.40
2023-04-03T03:12:07.796Z,1.70
2023-04-03T03:14:36.353Z,2.17
2023-04-03T03:17:09.098Z,1.80
2023-04-03T03:19:37.420Z,1.67
2023-04-03T03:22:07.422Z,1.60
2023-04-03T03:24:44.310Z,1.77
2023-04-03T03:27:14.855Z,1.57
2023-04-03T03:29:44.639Z,1.37
2023-04-03T03:32:14.525Z,1.97
2023-04-03T03:34:46.522Z,1.60
2023-04-03T03:37:15.753Z,2.20
2023-04-03T03:39:45.802Z,1.40
2023-04-03T03:42:14.525Z,1.50
2023-04-03T03:44:45.025Z,1.50
2023-04-03T03:47:20.508Z,1.80
2023-04-03T03:49:48.707Z,1.70
2023-04-03T03:52:18.138Z,1.80
2023-04-03T03:54:49.527Z,1.83
2023-04-03T03:57:20.060Z,1.50
2023-04-03T03:59:49.678Z,1.63
2023-04-03T04:02:29.759Z,1.50
2023-04-03T04:04:59.899Z,1.53
2023-04-03T04:07:32.767Z,1.90
2023-04-03T04:10:04.742Z,2.00
2023-04-03T04:12:32.846Z,1.80
2023-04-03T04:15:03.444Z,1.90
2023-04-03T04:17:32.009Z,1.50
2023-04-03T04:20:00.230Z,1.90
2023-04-03T04:22:28.558Z,1.97
2023-04-03T04:24:58.231Z,1.83
2023-04-03T04:27:30.148Z,2.13
2023-04-03T04:29:59.890Z,2.23
2023-04-03T04:32:30.208Z,1.67
2023-04-03T04:34:58.194Z,2.07
2023-04-03T04:37:29.564Z,1.90
2023-04-03T04:39:58.671Z,1.70
2023-04-03T04:42:28.750Z,2.00
2023-04-03T04:44:57.756Z,1.80
2023-04-03T04:47:28.044Z,1.97
2023-04-03T04:49:56.299Z,2.33
2023-04-03T04:52:24.308Z,2.03
2023-04-03T04:54:52.877Z,2.20
2023-04-03T04:57:22.967Z,2.03
2023-04-03T04:59:52.974Z,1.70
2023-04-03T05:02:21.754Z,1.80
2023-04-03T05:04:51.539Z,2.23
2023-04-03T05:07:19.632Z,2.27
2023-04-03T05:09:52.957Z,2.13
2023-04-03T05:12:20.893Z,1.90
2023-04-03T05:14:52.020Z,2.50
2023-04-03T05:17:23.638Z,2.10
2023-04-03T05:19:52.055Z,1.90
2023-04-03T05:22:20.629Z,2.30
2023-04-03T05:24:49.140Z,2.20
2023-04-03T05:27:18.962Z,2.80
2023-04-03T05:29:49.438Z,2.20
2023-04-03T05:32:17.834Z,2.37
2023-04-03T05:34:51.437Z,2.10
2023-04-03T05:37:19.770Z,2.27
2023-04-03T05:39:48.096Z,2.03
2023-04-03T05:42:19.562Z,1.93
2023-04-03T05:44:48.523Z,2.43
2023-04-03T05:47:19.096Z,2.33
2023-04-03T05:49:51.776Z,2.33
2023-04-03T05:52:26.113Z,2.50
2023-04-03T05:54:55.512Z,2.50
2023-04-03T05:57:25.080Z,3.40
2023-04-03T05:59:54.970Z,2.30
2023-04-03T06:02:27.196Z,2.23
2023-04-03T06:04:55.865Z,2.57
2023-04-03T06:07:29.358Z,2.33
2023-04-03T06:10:00.122Z,2.73
2023-04-03T06:12:30.373Z,2.57
2023-04-03T06:14:58.331Z,2.80
2023-04-03T06:17:28.164Z,2.57
2023-04-03T06:20:01.428Z,2.60
2023-04-03T06:22:39.463Z,2.60
2023-04-03T06:25:10.461Z,2.50
2023-04-03T06:27:39.603Z,2.57
2023-04-03T06:30:10.382Z,3.20
2023-04-03T06:32:40.126Z,2.77
2023-04-03T06:38:29.048Z,2.70
2023-04-03T06:41:00.786Z,2.60
2023-04-03T06:43:33.908Z,3.20
2023-04-03T06:46:03.871Z,2.80
2023-04-03T06:48:33.085Z,3.00
2023-04-03T06:51:01.229Z,2.93
2023-04-03T06:53:30.827Z,2.77
2023-04-03T06:55:59.307Z,2.30
2023-04-03T06:58:27.421Z,2.57
2023-04-03T07:00:56.895Z,2.70
2023-04-03T07:03:25.371Z,3.13
2023-04-03T07:05:54.618Z,2.80
2023-04-03T07:08:24.274Z,2.60
2023-04-03T07:10:54.814Z,3.00
2023-04-03T07:13:24.693Z,3.17
2023-04-03T07:15:57.966Z,2.70
2023-04-03T07:18:28.114Z,3.70
2023-04-03T07:20:59.061Z,2.50
2023-04-03T07:23:28.769Z,4.40
2023-04-03T07:25:59.805Z,2.90
2023-04-03T07:28:28.060Z,2.77
2023-04-03T07:31:03.425Z,2.80
2023-04-03T07:33:33.121Z,2.40
2023-04-03T07:36:05.354Z,2.70
2023-04-03T07:38:36.863Z,2.93
2023-04-03T07:41:07.058Z,2.60
2023-04-03T07:43:38.111Z,2.77
2023-04-03T07:46:10.678Z,2.97
2023-04-03T07:48:41.820Z,2.77
2023-04-03T07:51:10.182Z,2.83
2023-04-03T07:53:39.141Z,2.53
2023-04-03T07:56:10.479Z,2.20
2023-04-03T07:58:42.026Z,2.60
2023-04-03T08:01:10.246Z,2.57
2023-04-03T08:03:43.575Z,2.90
2023-04-03T08:06:16.169Z,2.90
2023-04-03T08:08:47.082Z,2.47
2023-04-03T08:11:19.843Z,2.77
2023-04-03T08:13:51.410Z,2.70
2023-04-03T08:16:23.439Z,2.60
2023-04-03T08:18:54.566Z,2.90
2023-04-03T08:21:24.000Z,2.80
2023-04-03T08:23:55.790Z,2.70
2023-04-03T08:26:27.674Z,2.80
2023-04-03T08:29:03.800Z,2.33
2023-04-03T08:31:32.361Z,2.50
2023-04-03T08:34:04.651Z,2.10
2023-04-03T08:36:36.287Z,2.47
2023-04-03T08:39:07.042Z,2.77
2023-04-03T08:41:41.256Z,2.57
2023-04-03T08:44:31.602Z,2.53
2023-04-03T08:47:12.397Z,2.10
2023-04-03T08:52:47.406Z,2.67
2023-04-03T08:55:26.163Z,2.47
2023-04-03T08:58:08.399Z,2.30
2023-04-03T09:00:52.429Z,2.23
2023-04-03T09:03:26.968Z,2.53
2023-04-03T09:06:12.682Z,2.40
2023-04-03T09:08:55.428Z,2.23
2023-04-03T09:11:42.193Z,2.10
2023-04-03T09:14:26.764Z,2.30
2023-04-03T09:17:02.715Z,2.60
2023-04-03T09:19:47.539Z,2.30
2023-04-03T09:22:32.741Z,2.57
2023-04-03T09:25:24.364Z,2.53
2023-04-03T09:28:11.333Z,2.70
2023-04-03T09:30:51.111Z,2.60
2023-04-03T09:33:45.834Z,2.50
2023-04-03T09:36:17.964Z,2.60
2023-04-03T09:38:49.581Z,3.30
2023-04-03T09:41:34.492Z,2.70
2023-04-03T09:44:03.597Z,2.40
2023-04-03T09:46:34.591Z,2.13
2023-04-03T09:49:09.508Z,3.10
2023-04-03T09:51:39.602Z,2.80
2023-04-03T09:54:43.416Z,2.00
2023-04-03T09:57:16.683Z,2.10
2023-04-03T09:59:49.821Z,2.20
2023-04-03T10:02:40.136Z,2.10
2023-04-03T10:05:33.676Z,2.47
2023-04-03T10:08:22.761Z,2.30
2023-04-03T10:11:07.266Z,3.03
2023-04-03T10:13:48.800Z,2.20
2023-04-03T10:16:24.275Z,2.60
2023-04-03T10:19:06.316Z,2.40
2023-04-03T10:21:43.906Z,2.60
2023-04-03T10:24:16.105Z,3.97
2023-04-03T10:26:53.560Z,2.50
2023-04-03T10:29:41.630Z,2.57
2023-04-03T10:32:27.128Z,2.20
2023-04-03T10:35:10.339Z,3.40
2023-04-03T10:38:01.999Z,2.70
2023-04-03T10:40:45.843Z,2.77
2023-04-03T10:43:22.872Z,3.20
2023-04-03T10:46:02.683Z,2.50
2023-04-03T10:49:16.627Z,3.10
2023-04-03T10:51:49.692Z,2.50
2023-04-03T10:54:25.491Z,2.37
2023-04-03T10:57:10.964Z,2.03
2023-04-03T10:59:44.230Z,2.40
2023-04-03T11:02:27.991Z,2.20
2023-04-03T11:05:03.645Z,2.40
2023-04-03T11:07:40.824Z,1.80
2023-04-03T11:10:17.887Z,2.10
2023-04-03T11:12:52.892Z,1.73
2023-04-03T11:15:24.248Z,2.20
2023-04-03T11:18:00.437Z,2.00
2023-04-03T11:20:34.574Z,2.00
2023-04-03T11:23:08.692Z,2.50
2023-04-03T11:25:41.867Z,1.77
2023-04-03T11:28:15.755Z,1.97
2023-04-03T11:30:51.929Z,1.90
2023-04-03T11:33:33.898Z,2.20
2023-04-03T11:36:24.992Z,2.13
2023-04-03T11:39:03.247Z,2.07
2023-04-03T11:41:44.849Z,2.07
2023-04-03T11:44:34.450Z,1.80
2023-04-03T11:47:04.164Z,2.10
2023-04-03T11:49:55.428Z,2.27
2023-04-03T11:52:58.750Z,2.17
2023-04-03T11:55:57.704Z,2.30
2023-04-03T11:58:28.572Z,2.13
2023-04-03T12:01:10.084Z,2.27
2023-04-03T12:04:09.217Z,2.30
2023-04-03T12:07:13.975Z,2.00
2023-04-03T12:10:32.130Z,2.13
2023-04-03T12:13:05.512Z,2.30
2023-04-03T12:15:55.421Z,2.50
2023-04-03T12:19:01.696Z,2.27
2023-04-03T12:22:16.236Z,1.90
2023-04-03T12:24:48.233Z,2.60
2023-04-03T12:27:27.496Z,1.80
2023-04-03T12:30:06.664Z,2.17
2023-04-03T12:33:02.332Z,2.20
2023-04-03T12:35:46.032Z,2.10
2023-04-03T12:38:53.841Z,1.73
2023-04-03T12:41:40.650Z,1.90
2023-04-03T12:44:34.625Z,2.03
2023-04-03T12:47:10.595Z,1.90
2023-04-03T12:49:43.059Z,2.40
2023-04-03T12:52:24.713Z,1.60
2023-04-03T12:54:54.510Z,2.13
2023-04-03T12:57:27.448Z,2.00
2023-04-03T12:59:57.992Z,2.20
2023-04-03T13:02:30.006Z,2.27
2023-04-03T13:05:02.413Z,2.10
2023-04-03T13:07:37.109Z,2.40
2023-04-03T13:10:17.615Z,2.13
2023-04-03T13:12:51.855Z,2.37
2023-04-03T13:15:33.245Z,2.10
2023-04-03T13:18:02.707Z,2.00
2023-04-03T13:20:34.431Z,2.50
2023-04-03T13:23:06.066Z,2.90
2023-04-03T13:25:37.759Z,2.73
2023-04-03T13:28:14.562Z,2.70
2023-04-03T13:30:59.962Z,2.90
2023-04-03T13:33:33.816Z,2.60
2023-04-03T13:36:09.467Z,2.67
2023-04-03T13:38:38.746Z,2.93
2023-04-03T13:41:27.303Z,2.80
2023-04-03T13:44:03.251Z,3.00
2023-04-03T13:46:38.564Z,2.80
2023-04-03T13:49:22.256Z,2.40
2023-04-03T13:52:03.935Z,2.87
2023-04-03T13:54:45.450Z,2.67
2023-04-03T13:57:20.331Z,2.60
2023-04-03T13:59:49.260Z,2.53
2023-04-03T14:02:21.684Z,2.60
2023-04-03T14:04:58.297Z,2.07
2023-04-03T14:07:30.480Z,2.00
2023-04-03T14:09:59.234Z,2.40
2023-04-03T14:12:32.490Z,2.27
2023-04-03T14:15:02.894Z,2.03
2023-04-03T14:17:34.262Z,1.80
2023-04-03T14:20:04.308Z,1.50
2023-04-03T14:22:39.271Z,1.70
2023-04-03T14:25:10.748Z,1.80
2023-04-03T14:27:41.256Z,1.67
2023-04-03T14:30:16.714Z,1.53
2023-04-03T14:32:45.009Z,1.40
2023-04-03T14:35:27.986Z,1.47
2023-04-03T14:37:58.995Z,1.50
2023-04-03T14:40:30.031Z,1.40
2023-04-03T14:43:01.864Z,1.80
2023-04-03T14:45:31.085Z,1.93
2023-04-03T14:48:01.150Z,1.23
2023-04-03T14:50:33.123Z,1.40
2023-04-03T14:53:02.096Z,1.50
2023-04-03T14:55:32.828Z,1.90
2023-04-03T14:58:03.268Z,1.60
2023-04-03T15:00:33.006Z,1.70
2023-04-03T15:03:01.044Z,1.40
2023-04-03T15:05:30.861Z,1.50
2023-04-03T15:08:05.296Z,1.50
2023-04-03T15:10:35.990Z,1.30
2023-04-03T15:13:09.252Z,1.10
2023-04-03T15:15:39.401Z,1.20
2023-04-03T15:18:09.248Z,1.30
2023-04-03T15:20:38.023Z,1.23
2023-04-03T15:23:09.060Z,1.23
2023-04-03T15:25:38.460Z,1.20
2023-04-03T15:28:08.530Z,1.43
2023-04-03T15:30:41.397Z,1.00
2023-04-03T15:33:12.036Z,1.30
2023-04-03T15:35:40.464Z,1.23
2023-04-03T15:38:11.999Z,1.47
2023-04-03T15:40:41.610Z,1.40
2023-04-03T15:43:11.233Z,1.40
2023-04-03T15:45:41.551Z,1.67
2023-04-03T15:48:10.911Z,1.60
2023-04-03T15:50:40.329Z,1.53
2023-04-03T15:53:10.742Z,1.20
2023-04-03T15:55:41.179Z,1.27
2023-04-03T15:58:09.776Z,1.40
2023-04-03T16:00:39.204Z,1.17
2023-04-03T16:03:11.115Z,1.33
2023-04-03T16:05:44.504Z,1.57
2023-04-03T16:08:14.964Z,1.30
2023-04-03T16:10:42.973Z,1.30
2023-04-03T16:13:13.304Z,1.20
2023-04-03T16:15:43.145Z,1.30
2023-04-03T16:18:15.002Z,1.40
2023-04-03T16:20:45.096Z,1.33
2023-04-03T16:23:15.884Z,1.40
2023-04-03T16:25:48.251Z,1.30
2023-04-03T16:28:16.734Z,1.20
2023-04-03T16:30:46.404Z,1.17
2023-04-03T16:33:16.364Z,1.43
2023-04-03T16:35:45.851Z,1.30
2023-04-03T16:38:16.110Z,1.00
2023-04-03T16:40:45.538Z,1.53
2023-04-03T16:43:16.982Z,1.37
2023-04-03T16:45:45.134Z,1.57
2023-04-03T16:48:18.096Z,1.47
2023-04-03T16:50:51.666Z,1.20
2023-04-03T16:53:23.259Z,1.30
2023-04-03T16:55:57.776Z,1.20
2023-04-03T16:58:27.855Z,1.33
2023-04-03T17:00:56.900Z,1.30
2023-04-03T17:03:27.400Z,1.40
2023-04-03T17:05:57.107Z,1.30
2023-04-03T17:08:27.737Z,1.67
2023-04-03T17:10:57.213Z,1.60
2023-04-03T17:13:31.947Z,1.53
2023-04-03T17:16:01.204Z,1.40
2023-04-03T17:18:31.609Z,1.63
2023-04-03T17:21:00.579Z,1.40
2023-04-03T17:23:31.297Z,1.67
2023-04-03T17:26:05.169Z,1.33
2023-04-03T17:28:37.349Z,1.80
2023-04-03T17:31:09.479Z,1.83
2023-04-03T17:33:38.669Z,1.50
2023-04-03T17:36:09.559Z,1.60
2023-04-03T17:38:44.143Z,1.23
2023-04-03T17:41:16.704Z,1.40
2023-04-03T17:43:48.169Z,1.70
2023-04-03T17:46:17.971Z,1.30
2023-04-03T17:48:47.881Z,1.50
2023-04-03T17:51:22.505Z,1.47
2023-04-03T17:54:14.764Z,1.70
2023-04-03T17:56:48.124Z,1.80
2023-04-03T17:59:17.106Z,1.47
2023-04-03T18:01:47.795Z,1.50
2023-04-03T18:04:17.074Z,1.60
2023-04-03T18:06:48.949Z,1.40
2023-04-03T18:09:24.981Z,1.30
2023-04-03T18:11:56.767Z,1.60
2023-04-03T18:14:31.820Z,1.30
2023-04-03T18:17:00.595Z,1.50
2023-04-03T18:19:30.074Z,1.40
2023-04-03T18:22:01.909Z,1.60
2023-04-03T18:24:38.861Z,1.47
2023-04-03T18:27:11.418Z,1.63
2023-04-03T18:29:42.321Z,1.70
2023-04-03T18:32:13.398Z,1.50
2023-04-03T18:34:42.693Z,1.63
2023-04-03T18:40:16.414Z,1.57
2023-04-03T18:42:48.796Z,1.80
2023-04-03T18:45:23.508Z,1.60
2023-04-03T18:47:53.428Z,1.70
2023-04-03T18:50:23.440Z,1.50
2023-04-03T18:52:54.669Z,1.73
2023-04-03T18:55:26.775Z,1.87
2023-04-03T18:57:55.045Z,1.90
2023-04-03T19:00:29.136Z,2.07
2023-04-03T19:02:59.620Z,1.80
2023-04-03T19:05:29.482Z,2.00
2023-04-03T19:07:59.296Z,2.00
2023-04-03T19:10:31.578Z,1.80
2023-04-03T19:13:01.919Z,1.67
2023-04-03T19:15:29.908Z,1.83
2023-04-03T19:18:01.553Z,1.63
2023-04-03T19:20:31.577Z,1.77
2023-04-03T19:23:00.134Z,1.90
2023-04-03T19:25:33.053Z,1.80
2023-04-03T19:28:02.259Z,1.63
2023-04-03T19:30:34.975Z,1.73
2023-04-03T19:33:05.998Z,1.57
2023-04-03T19:35:34.121Z,1.60
2023-04-03T19:38:04.279Z,1.50
2023-04-03T19:40:38.533Z,1.37
2023-04-03T19:43:06.978Z,1.30
2023-04-03T19:45:41.612Z,1.50
2023-04-03T19:48:11.661Z,2.10
2023-04-03T19:50:39.816Z,1.87
2023-04-03T19:53:10.670Z,1.70
2023-04-03T19:55:44.603Z,2.03
2023-04-03T19:58:13.059Z,1.80
2023-04-03T20:00:42.844Z,1.60
2023-04-03T20:03:11.253Z,1.60
2023-04-03T20:05:39.513Z,1.70
2023-04-03T20:08:08.019Z,1.63
2023-04-03T20:10:40.517Z,1.77
2023-04-03T20:13:14.320Z,1.90
2023-04-03T20:15:44.812Z,1.60
2023-04-03T20:18:18.354Z,1.83
2023-04-03T20:20:54.863Z,1.70
2023-04-03T20:23:23.906Z,1.43
2023-04-03T20:26:02.036Z,1.97
2023-04-03T20:28:39.084Z,2.10
2023-04-03T20:31:09.246Z,1.80
2023-04-03T20:33:38.862Z,2.00
2023-04-03T20:36:07.750Z,1.73
2023-04-03T20:38:37.399Z,1.77
2023-04-03T20:41:06.048Z,1.90
2023-04-03T20:43:35.368Z,1.73
2023-04-03T20:46:06.998Z,1.60
2023-04-03T20:48:35.986Z,1.83
2023-04-03T20:51:15.554Z,1.70
2023-04-03T20:53:48.064Z,2.07
2023-04-03T20:56:17.662Z,2.10
2023-04-03T20:58:47.945Z,1.87
2023-04-03T21:01:23.251Z,2.10
2023-04-03T21:03:57.291Z,1.90
2023-04-03T21:07:03.256Z,1.63
2023-04-03T21:10:10.111Z,1.60
2023-04-03T21:13:18.891Z,1.70
2023-04-03T21:15:47.787Z,1.67
2023-04-03T21:18:37.937Z,1.40
2023-04-03T21:21:07.129Z,2.07
2023-04-03T21:23:35.902Z,1.80
2023-04-03T21:26:07.270Z,1.80
2023-04-03T21:28:38.069Z,1.70
2023-04-03T21:31:09.628Z,2.00
2023-04-03T21:33:41.740Z,2.10
2023-04-03T21:36:11.138Z,2.00
2023-04-03T21:38:39.718Z,1.53
2023-04-03T21:41:08.007Z,1.73
2023-04-03T21:43:37.464Z,1.90
2023-04-03T21:46:06.388Z,2.00
2023-04-03T21:48:37.993Z,1.90
2023-04-03T21:51:12.980Z,2.50
2023-04-03T21:53:46.060Z,2.03
2023-04-03T21:56:19.608Z,1.83
2023-04-03T21:58:55.641Z,1.90
2023-04-03T22:01:23.993Z,2.00
2023-04-03T22:03:58.973Z,2.13
2023-04-03T22:06:34.989Z,2.03
2023-04-03T22:09:04.886Z,2.40
2023-04-03T22:11:33.986Z,2.17
2023-04-03T22:14:03.306Z,1.80
2023-04-03T22:16:37.032Z,1.90
2023-04-03T22:19:06.257Z,1.83
2023-04-03T22:21:42.813Z,2.03
2023-04-03T22:24:12.664Z,2.27
2023-04-03T22:26:45.324Z,1.80
2023-04-03T22:29:13.848Z,2.30
2023-04-03T22:31:44.836Z,2.20
2023-04-03T22:34:13.122Z,1.97
2023-04-03T22:36:43.901Z,2.03
2023-04-03T22:39:13.529Z,2.30
2023-04-03T22:41:47.636Z,2.20
2023-04-03T22:44:17.845Z,2.10
2023-04-03T22:46:47.547Z,2.10
2023-04-03T22:49:15.741Z,2.43
2023-04-03T22:51:49.565Z,2.50
2023-04-03T22:54:21.309Z,2.27
2023-04-03T22:56:50.708Z,2.57
2023-04-03T22:59:19.665Z,2.23
2023-04-03T23:01:56.515Z,2.77
2023-04-03T23:04:26.194Z,2.27
2023-04-03T23:06:56.342Z,2.43
2023-04-03T23:09:25.966Z,2.20
2023-04-03T23:11:55.874Z,2.20
2023-04-03T23:14:23.805Z,2.27
2023-04-03T23:16:55.457Z,2.50
2023-04-03T23:19:24.412Z,2.47
2023-04-03T23:21:53.413Z,2.20
2023-04-03T23:24:25.897Z,2.10
2023-04-03T23:26:54.271Z,2.27
2023-04-03T23:29:23.235Z,2.03
2023-04-03T23:31:55.176Z,2.60
2023-04-03T23:34:24.500Z,2.10
2023-04-03T23:36:52.827Z,2.20
2023-04-03T23:39:23.300Z,2.60
2023-04-03T23:41:54.416Z,2.50
2023-04-03T23:44:24.493Z,2.90
2023-04-03T23:46:52.414Z,2.67
2023-04-03T23:49:20.320Z,2.30
2023-04-03T23:51:53.829Z,2.27
2023-04-03T23:54:25.379Z,2.40
2023-04-03T23:56:55.218Z,2.00
2023-04-03T23:59:23.551Z,2.20
